»·PEaware :: DAL1013 KFLG-KPHX

DAL1013 :: KFLG-KPHX

FLIGHT INFORMATION

Flight Status: Arrived
Operator:
Delta Air Lines
More flights by this operator :: More flights under this callsign
Pilot: Joe C. (19058)
Aircraft: SAAB 340
(SF34)
More flights by this aircraft type
Origin: KFLG Flagstaff Pulliam
United States
Destination: KPHX Phoenix Sky Harbor Intl
United States
More flights between these airports :: More routes between these airports
Route: +FLG1 OATES DSERT DSERT2
File this flight plan on PilotEdge
Remarks:
Altitude:
(Current/Filed)
13,000ft
Speed:
(Current/Filed)
260kts
Departed: 03-Sep-18 10:25 AM
Arrived: 03-Sep-18 10:58 AM
Distance/Time
Traveled:
103nm/0:33
Distance/Time
To Go:
Arrived

Flight Plot

Page will automatically refresh every two minutes.

Flight plan parsing failed; only flown route is shown


Map Options




Map Legend


Flown Route
Filed Route
Departure Airport
Arrival Airport
Navaid (VOR, NDB)
Fix

Horizontal Profiles

Position Reports

Time Latitude Longitude Heading Altitude Ground
Speed
03-Sep-18 09:56 35.138548 -111.674327 349 7016ft 0kts
03-Sep-18 09:57 35.138548 -111.674327 349 7016ft 0kts
03-Sep-18 09:58 35.138548 -111.674327 349 7016ft 0kts
03-Sep-18 09:59 35.138548 -111.674327 349 7016ft 0kts
03-Sep-18 10:00 35.138548 -111.674327 349 7016ft 0kts
03-Sep-18 10:01 35.138548 -111.674327 349 7016ft 0kts
03-Sep-18 10:02 35.138548 -111.674327 349 7016ft 0kts
03-Sep-18 10:03 35.138548 -111.674327 349 7016ft 0kts
03-Sep-18 10:04 35.138548 -111.674327 349 7016ft 0kts
03-Sep-18 10:05 35.138548 -111.674327 349 7016ft 0kts
03-Sep-18 10:06 35.138548 -111.674327 349 7016ft 0kts
03-Sep-18 10:07 35.138548 -111.674327 349 7016ft 0kts
03-Sep-18 10:08 35.138548 -111.674327 349 7016ft 0kts
03-Sep-18 10:09 35.138548 -111.674327 349 7016ft 0kts
03-Sep-18 10:10 35.138548 -111.674327 349 7016ft 0kts
03-Sep-18 10:11 35.138548 -111.674327 349 7016ft 0kts
03-Sep-18 10:12 35.138548 -111.674327 349 7016ft 0kts
03-Sep-18 10:13 35.138548 -111.674327 349 7016ft 0kts
03-Sep-18 10:14 35.138548 -111.674327 349 7016ft 0kts
03-Sep-18 10:15 35.138551 -111.674327 349 7016ft 0kts
03-Sep-18 10:16 35.138574 -111.674480 194 7016ft 0kts
03-Sep-18 10:17 35.138574 -111.674480 194 7016ft 0kts
03-Sep-18 10:18 35.138574 -111.674480 194 7016ft 0kts
03-Sep-18 10:19 35.138310 -111.674554 187 7016ft 4kts
03-Sep-18 10:20 35.139051 -111.672369 39 7016ft 6kts
03-Sep-18 10:21 35.141788 -111.669470 41 7016ft 19kts
03-Sep-18 10:22 35.147520 -111.663360 41 7016ft 28kts
03-Sep-18 10:23 35.149863 -111.660600 103 7016ft 0kts
03-Sep-18 10:24 35.149863 -111.660600 103 7016ft 0kts
03-Sep-18 10:25 35.148673 -111.660320 220 7016ft 25kts
03-Sep-18 10:26 35.125186 -111.684510 219 7400ft 164kts
03-Sep-18 10:27 35.081007 -111.683035 183 9058ft 190kts
03-Sep-18 10:28 35.036601 -111.688061 185 9955ft 194kts
03-Sep-18 10:29 34.983935 -111.694804 185 11261ft 191kts
03-Sep-18 10:30 34.930963 -111.701588 184 12396ft 193kts
03-Sep-18 10:31 34.875979 -111.708617 184 12902ft 220kts
03-Sep-18 10:32 34.810880 -111.703280 174 12894ft 246kts
03-Sep-18 10:33 34.741208 -111.696217 174 12890ft 254kts
03-Sep-18 10:34 34.670734 -111.689057 174 12890ft 256kts
03-Sep-18 10:35 34.599524 -111.681820 174 12890ft 257kts
03-Sep-18 10:36 34.528415 -111.674613 174 12891ft 257kts
03-Sep-18 10:37 34.457209 -111.667408 174 12897ft 257kts
03-Sep-18 10:38 34.387127 -111.683343 192 12902ft 258kts
03-Sep-18 10:39 34.317426 -111.704421 193 12903ft 258kts
03-Sep-18 10:40 34.248566 -111.725325 192 13210ft 248kts
03-Sep-18 10:41 34.180788 -111.745347 191 13274ft 253kts
03-Sep-18 10:42 34.111850 -111.766137 193 12975ft 265kts
03-Sep-18 10:43 34.063371 -111.781219 193 12456ft 269kts
03-Sep-18 10:44 33.993468 -111.802367 193 11099ft 256kts
03-Sep-18 10:45 33.925381 -111.822878 193 9593ft 250kts
03-Sep-18 10:46 33.861504 -111.842102 193 9059ft 230kts
03-Sep-18 10:47 33.798544 -111.869559 199 9054ft 249kts
03-Sep-18 10:48 33.733142 -111.898727 200 9025ft 254kts
03-Sep-18 10:49 33.666338 -111.928552 199 8714ft 264kts
03-Sep-18 10:50 33.601240 -111.975538 235 7309ft 287kts
03-Sep-18 10:51 33.559510 -112.056013 234 6394ft 278kts
03-Sep-18 10:52 33.515168 -112.123420 261 4568ft 251kts
03-Sep-18 10:53 33.501849 -112.199902 233 3012ft 226kts
03-Sep-18 10:54 33.452069 -112.202574 146 2689ft 158kts
03-Sep-18 10:55 33.443895 -112.155354 90 1891ft 161kts
03-Sep-18 10:56 33.442191 -112.098882 98 1996ft 127kts
03-Sep-18 10:57 33.440475 -112.057026 86 1707ft 139kts
03-Sep-18 10:58 33.440873 -112.019148 90 1117ft 57kts
03-Sep-18 10:59 33.440018 -112.016915 177 1120ft 0kts
03-Sep-18 11:00 33.439759 -112.012944 89 1124ft 22kts

Navigation Log

Ident Type
Flight plan parsing failed, navigation log unavailable